sensor_id;sensor_type;location;lat;lon;timestamp;temperature;humidity
16491;DHT22;8356;51.214;3.270;2024-01-25T00:00:55;282.10;2278.40
16491;DHT22;8356;51.214;3.270;2024-01-25T00:03:20;282.00;2278.40
16491;DHT22;8356;51.214;3.270;2024-01-25T00:05:47;281.90;2278.40
16491;DHT22;8356;51.214;3.270;2024-01-25T00:08:13;281.90;2278.40
16491;DHT22;8356;51.214;3.270;2024-01-25T00:10:39;281.90;2278.40
16491;DHT22;8356;51.214;3.270;2024-01-25T00:13:05;281.80;2278.40
16491;DHT22;8356;51.214;3.270;2024-01-25T00:15:30;281.80;2278.40
16491;DHT22;8356;51.214;3.270;2024-01-25T00:17:56;281.90;2278.40
16491;DHT22;8356;51.214;3.270;2024-01-25T00:20:22;282.00;2278.40
16491;DHT22;8356;51.214;3.270;2024-01-25T00:22:48;281.90;2278.40
16491;DHT22;8356;51.214;3.270;2024-01-25T00:25:13;281.90;2278.40
16491;DHT22;8356;51.214;3.270;2024-01-25T00:27:39;281.90;2278.40
16491;DHT22;8356;51.214;3.270;2024-01-25T00:30:05;281.80;2278.40
16491;DHT22;8356;51.214;3.270;2024-01-25T00:32:31;281.80;2278.40
16491;DHT22;8356;51.214;3.270;2024-01-25T00:34:57;281.70;2278.40
16491;DHT22;8356;51.214;3.270;2024-01-25T00:37:23;281.80;2278.40
16491;DHT22;8356;51.214;3.270;2024-01-25T00:39:49;281.90;2278.40
16491;DHT22;8356;51.214;3.270;2024-01-25T00:42:17;281.80;2278.40
16491;DHT22;8356;51.214;3.270;2024-01-25T00:44:47;281.90;2278.40
16491;DHT22;8356;51.214;3.270;2024-01-25T00:47:12;281.90;2278.40
16491;DHT22;8356;51.214;3.270;2024-01-25T00:49:38;281.80;2278.40
16491;DHT22;8356;51.214;3.270;2024-01-25T00:52:04;281.80;2278.40
16491;DHT22;8356;51.214;3.270;2024-01-25T00:54:30;281.70;2278.40
16491;DHT22;8356;51.214;3.270;2024-01-25T00:56:56;281.70;2278.40
16491;DHT22;8356;51.214;3.270;2024-01-25T00:59:22;281.80;2278.40
16491;DHT22;8356;51.214;3.270;2024-01-25T01:01:48;281.70;2278.40
16491;DHT22;8356;51.214;3.270;2024-01-25T01:04:15;281.60;2278.40
16491;DHT22;8356;51.214;3.270;2024-01-25T01:06:41;281.60;2278.40
16491;DHT22;8356;51.214;3.270;2024-01-25T01:09:07;281.60;2278.40
16491;DHT22;8356;51.214;3.270;2024-01-25T01:11:33;281.70;2278.40
16491;DHT22;8356;51.214;3.270;2024-01-25T01:13:58;281.60;2278.40
16491;DHT22;8356;51.214;3.270;2024-01-25T01:16:24;281.60;2278.40
16491;DHT22;8356;51.214;3.270;2024-01-25T01:18:50;281.60;2278.40
16491;DHT22;8356;51.214;3.270;2024-01-25T01:21:15;281.60;2278.40
16491;DHT22;8356;51.214;3.270;2024-01-25T01:23:41;281.60;2278.40
16491;DHT22;8356;51.214;3.270;2024-01-25T01:26:07;281.60;2278.40
16491;DHT22;8356;51.214;3.270;2024-01-25T01:28:33;281.60;2278.40
16491;DHT22;8356;51.214;3.270;2024-01-25T01:30:58;281.60;2278.40
16491;DHT22;8356;51.214;3.270;2024-01-25T01:33:24;281.60;2278.40
16491;DHT22;8356;51.214;3.270;2024-01-25T01:35:49;281.60;2278.40
16491;DHT22;8356;51.214;3.270;2024-01-25T01:38:15;256.90;2252.80
16491;DHT22;8356;51.214;3.270;2024-01-25T01:40:41;281.60;2278.40
16491;DHT22;8356;51.214;3.270;2024-01-25T01:43:06;281.60;2278.40
16491;DHT22;8356;51.214;3.270;2024-01-25T01:45:32;256.90;2252.80
16491;DHT22;8356;51.214;3.270;2024-01-25T01:47:59;281.60;2278.40
16491;DHT22;8356;51.214;3.270;2024-01-25T01:50:24;281.60;2278.40
16491;DHT22;8356;51.214;3.270;2024-01-25T01:52:51;281.60;2278.40
16491;DHT22;8356;51.214;3.270;2024-01-25T01:55:18;281.60;2278.40
16491;DHT22;8356;51.214;3.270;2024-01-25T01:57:44;256.80;2252.80
16491;DHT22;8356;51.214;3.270;2024-01-25T02:00:11;256.80;2252.80
16491;DHT22;8356;51.214;3.270;2024-01-25T02:02:39;256.80;2252.80
16491;DHT22;8356;51.214;3.270;2024-01-25T02:05:05;256.90;2252.80
16491;DHT22;8356;51.214;3.270;2024-01-25T02:07:31;281.60;2278.40
16491;DHT22;8356;51.214;3.270;2024-01-25T02:09:57;256.80;2252.80
16491;DHT22;8356;51.214;3.270;2024-01-25T02:12:22;256.80;2252.80
16491;DHT22;8356;51.214;3.270;2024-01-25T02:14:48;256.80;2252.80
16491;DHT22;8356;51.214;3.270;2024-01-25T02:17:14;281.60;2278.40
16491;DHT22;8356;51.214;3.270;2024-01-25T02:19:39;281.60;2278.40
16491;DHT22;8356;51.214;3.270;2024-01-25T02:22:06;281.60;2278.40
16491;DHT22;8356;51.214;3.270;2024-01-25T02:24:32;256.90;2252.80
16491;DHT22;8356;51.214;3.270;2024-01-25T02:26:58;256.80;2252.80
16491;DHT22;8356;51.214;3.270;2024-01-25T02:29:23;256.60;2252.80
16491;DHT22;8356;51.214;3.270;2024-01-25T02:31:49;256.80;2252.80
16491;DHT22;8356;51.214;3.270;2024-01-25T02:34:15;256.70;2252.80
16491;DHT22;8356;51.214;3.270;2024-01-25T02:36:40;256.70;2252.80
16491;DHT22;8356;51.214;3.270;2024-01-25T02:39:06;256.60;2252.80
16491;DHT22;8356;51.214;3.270;2024-01-25T02:41:32;256.70;2252.80
16491;DHT22;8356;51.214;3.270;2024-01-25T02:43:59;256.70;2252.80
16491;DHT22;8356;51.214;3.270;2024-01-25T02:46:25;256.70;2252.80
16491;DHT22;8356;51.214;3.270;2024-01-25T02:48:50;256.60;2252.80
16491;DHT22;8356;51.214;3.270;2024-01-25T02:51:16;256.50;2252.80
16491;DHT22;8356;51.214;3.270;2024-01-25T02:53:41;256.40;2252.80
16491;DHT22;8356;51.214;3.270;2024-01-25T02:56:07;256.50;2252.80
16491;DHT22;8356;51.214;3.270;2024-01-25T02:58:33;256.40;2252.80
16491;DHT22;8356;51.214;3.270;2024-01-25T03:00:58;256.40;2252.80
16491;DHT22;8356;51.214;3.270;2024-01-25T03:03:24;256.30;2252.80
16491;DHT22;8356;51.214;3.270;2024-01-25T03:05:51;256.30;2252.80
16491;DHT22;8356;51.214;3.270;2024-01-25T03:08:17;256.50;2252.80
16491;DHT22;8356;51.214;3.270;2024-01-25T03:10:42;256.30;2252.80
16491;DHT22;8356;51.214;3.270;2024-01-25T03:13:08;256.20;2252.80
16491;DHT22;8356;51.214;3.270;2024-01-25T03:15:34;256.20;2252.80
16491;DHT22;8356;51.214;3.270;2024-01-25T03:17:59;256.10;2252.80
16491;DHT22;8356;51.214;3.270;2024-01-25T03:20:25;256.00;2252.80
16491;DHT22;8356;51.214;3.270;2024-01-25T03:22:51;256.00;2252.80
16491;DHT22;8356;51.214;3.270;2024-01-25T03:25:16;231.20;2252.80
16491;DHT22;8356;51.214;3.270;2024-01-25T03:27:42;231.30;2252.80
16491;DHT22;8356;51.214;3.270;2024-01-25T03:30:08;256.10;2252.80
16491;DHT22;8356;51.214;3.270;2024-01-25T03:32:35;256.20;2252.80
16491;DHT22;8356;51.214;3.270;2024-01-25T03:35:01;256.10;2252.80
16491;DHT22;8356;51.214;3.270;2024-01-25T03:37:27;231.30;2252.80
16491;DHT22;8356;51.214;3.270;2024-01-25T03:39:52;256.00;2252.80
16491;DHT22;8356;51.214;3.270;2024-01-25T03:42:18;256.00;2252.80
16491;DHT22;8356;51.214;3.270;2024-01-25T03:44:44;256.00;2252.80
16491;DHT22;8356;51.214;3.270;2024-01-25T03:47:10;256.00;2252.80
16491;DHT22;8356;51.214;3.270;2024-01-25T03:49:36;256.00;2252.80
16491;DHT22;8356;51.214;3.270;2024-01-25T03:52:06;256.00;2252.80
16491;DHT22;8356;51.214;3.270;2024-01-25T03:54:31;256.00;2252.80
16491;DHT22;8356;51.214;3.270;2024-01-25T03:56:57;231.30;2252.80
16491;DHT22;8356;51.214;3.270;2024-01-25T03:59:22;231.20;2252.80
16491;DHT22;8356;51.214;3.270;2024-01-25T04:01:48;231.10;2252.80
16491;DHT22;8356;51.214;3.270;2024-01-25T04:04:15;231.00;2252.80
16491;DHT22;8356;51.214;3.270;2024-01-25T04:06:41;231.10;2252.80
16491;DHT22;8356;51.214;3.270;2024-01-25T04:09:14;231.00;2252.80
16491;DHT22;8356;51.214;3.270;2024-01-25T04:11:42;230.90;2252.80
16491;DHT22;8356;51.214;3.270;2024-01-25T04:14:08;230.90;2252.80
16491;DHT22;8356;51.214;3.270;2024-01-25T04:16:34;230.90;2252.80
16491;DHT22;8356;51.214;3.270;2024-01-25T04:19:00;230.90;2252.80
16491;DHT22;8356;51.214;3.270;2024-01-25T04:21:27;230.90;2252.80
16491;DHT22;8356;51.214;3.270;2024-01-25T04:23:52;230.90;2252.80
16491;DHT22;8356;51.214;3.270;2024-01-25T04:26:18;230.90;2252.80
16491;DHT22;8356;51.214;3.270;2024-01-25T04:28:44;230.90;2252.80
16491;DHT22;8356;51.214;3.270;2024-01-25T04:31:09;230.90;2252.80
16491;DHT22;8356;51.214;3.270;2024-01-25T04:33:35;230.90;2252.80
16491;DHT22;8356;51.214;3.270;2024-01-25T04:36:03;230.90;2252.80
16491;DHT22;8356;51.214;3.270;2024-01-25T04:38:29;230.80;2252.80
16491;DHT22;8356;51.214;3.270;2024-01-25T04:40:54;230.70;2252.80
16491;DHT22;8356;51.214;3.270;2024-01-25T04:43:20;230.80;2252.80
16491;DHT22;8356;51.214;3.270;2024-01-25T04:45:46;230.70;2252.80
16491;DHT22;8356;51.214;3.270;2024-01-25T04:48:11;230.70;2252.80
16491;DHT22;8356;51.214;3.270;2024-01-25T04:50:37;230.60;2252.80
16491;DHT22;8356;51.214;3.270;2024-01-25T04:53:04;230.70;2252.80
16491;DHT22;8356;51.214;3.270;2024-01-25T04:55:30;230.50;2252.80
16491;DHT22;8356;51.214;3.270;2024-01-25T04:57:55;230.60;2252.80
16491;DHT22;8356;51.214;3.270;2024-01-25T05:00:22;230.70;2252.80
16491;DHT22;8356;51.214;3.270;2024-01-25T05:02:48;230.70;2252.80
16491;DHT22;8356;51.214;3.270;2024-01-25T05:05:14;230.70;2252.80
16491;DHT22;8356;51.214;3.270;2024-01-25T05:07:40;230.60;2252.80
16491;DHT22;8356;51.214;3.270;2024-01-25T05:10:06;230.60;2252.80
16491;DHT22;8356;51.214;3.270;2024-01-25T05:12:32;230.40;2252.80
16491;DHT22;8356;51.214;3.270;2024-01-25T05:14:58;230.40;2252.80
16491;DHT22;8356;51.214;3.270;2024-01-25T05:17:23;230.70;2252.80
16491;DHT22;8356;51.214;3.270;2024-01-25T05:19:49;230.70;2252.80
16491;DHT22;8356;51.214;3.270;2024-01-25T05:22:15;230.60;2252.80
16491;DHT22;8356;51.214;3.270;2024-01-25T05:24:41;230.50;2252.80
16491;DHT22;8356;51.214;3.270;2024-01-25T05:27:07;230.50;2252.80
16491;DHT22;8356;51.214;3.270;2024-01-25T05:29:33;230.60;2252.80
16491;DHT22;8356;51.214;3.270;2024-01-25T05:31:58;230.50;2252.80
16491;DHT22;8356;51.214;3.270;2024-01-25T05:34:24;230.50;2252.80
16491;DHT22;8356;51.214;3.270;2024-01-25T05:36:50;230.50;2252.80
16491;DHT22;8356;51.214;3.270;2024-01-25T05:39:16;230.40;2252.80
16491;DHT22;8356;51.214;3.270;2024-01-25T05:41:42;230.40;2252.80
16491;DHT22;8356;51.214;3.270;2024-01-25T05:44:11;230.50;2252.80
16491;DHT22;8356;51.214;3.270;2024-01-25T05:46:37;230.50;2252.80
16491;DHT22;8356;51.214;3.270;2024-01-25T05:49:02;230.60;2252.80
16491;DHT22;8356;51.214;3.270;2024-01-25T05:51:28;230.60;2252.80
16491;DHT22;8356;51.214;3.270;2024-01-25T05:53:54;230.60;2252.80
16491;DHT22;8356;51.214;3.270;2024-01-25T05:56:19;230.70;2252.80
16491;DHT22;8356;51.214;3.270;2024-01-25T05:58:45;230.60;2252.80
16491;DHT22;8356;51.214;3.270;2024-01-25T06:01:11;230.50;2252.80
16491;DHT22;8356;51.214;3.270;2024-01-25T06:03:36;230.50;2252.80
16491;DHT22;8356;51.214;3.270;2024-01-25T06:06:02;230.60;2252.80
16491;DHT22;8356;51.214;3.270;2024-01-25T06:08:28;230.60;2252.80
16491;DHT22;8356;51.214;3.270;2024-01-25T06:10:53;230.60;2252.80
16491;DHT22;8356;51.214;3.270;2024-01-25T06:13:19;230.50;2252.80
16491;DHT22;8356;51.214;3.270;2024-01-25T06:15:44;230.50;2252.80
16491;DHT22;8356;51.214;3.270;2024-01-25T06:18:10;230.50;2252.80
16491;DHT22;8356;51.214;3.270;2024-01-25T06:20:36;230.60;2252.80
16491;DHT22;8356;51.214;3.270;2024-01-25T06:23:01;230.70;2252.80
16491;DHT22;8356;51.214;3.270;2024-01-25T06:25:27;230.70;2252.80
16491;DHT22;8356;51.214;3.270;2024-01-25T06:27:56;230.80;2252.80
16491;DHT22;8356;51.214;3.270;2024-01-25T06:30:22;230.80;2252.80
16491;DHT22;8356;51.214;3.270;2024-01-25T06:32:48;230.70;2252.80
16491;DHT22;8356;51.214;3.270;2024-01-25T06:35:14;230.70;2252.80
16491;DHT22;8356;51.214;3.270;2024-01-25T06:37:40;230.70;2252.80
16491;DHT22;8356;51.214;3.270;2024-01-25T06:40:06;230.80;2252.80
16491;DHT22;8356;51.214;3.270;2024-01-25T06:42:34;230.70;2252.80
16491;DHT22;8356;51.214;3.270;2024-01-25T06:44:59;230.60;2252.80
16491;DHT22;8356;51.214;3.270;2024-01-25T06:47:25;230.60;2252.80
16491;DHT22;8356;51.214;3.270;2024-01-25T06:49:50;230.50;2252.80
16491;DHT22;8356;51.214;3.270;2024-01-25T06:52:18;230.50;2252.80
16491;DHT22;8356;51.214;3.270;2024-01-25T06:54:44;230.50;2252.80
16491;DHT22;8356;51.214;3.270;2024-01-25T06:57:09;230.50;2252.80
16491;DHT22;8356;51.214;3.270;2024-01-25T06:59:35;230.50;2252.80
16491;DHT22;8356;51.214;3.270;2024-01-25T07:02:01;230.40;2252.80
16491;DHT22;8356;51.214;3.270;2024-01-25T07:04:28;230.40;2252.80
16491;DHT22;8356;51.214;3.270;2024-01-25T07:06:54;230.40;2252.80
16491;DHT22;8356;51.214;3.270;2024-01-25T07:09:20;230.40;2252.80
16491;DHT22;8356;51.214;3.270;2024-01-25T07:11:46;230.50;2252.80
16491;DHT22;8356;51.214;3.270;2024-01-25T07:14:12;230.40;2252.80
16491;DHT22;8356;51.214;3.270;2024-01-25T07:16:37;230.50;2252.80
16491;DHT22;8356;51.214;3.270;2024-01-25T07:19:03;230.50;2252.80
16491;DHT22;8356;51.214;3.270;2024-01-25T07:21:29;230.50;2252.80
16491;DHT22;8356;51.214;3.270;2024-01-25T07:24:00;230.50;2252.80
16491;DHT22;8356;51.214;3.270;2024-01-25T07:26:26;230.50;2252.80
16491;DHT22;8356;51.214;3.270;2024-01-25T07:28:52;230.50;2252.80
16491;DHT22;8356;51.214;3.270;2024-01-25T07:31:24;230.50;2252.80
16491;DHT22;8356;51.214;3.270;2024-01-25T07:33:49;230.40;2252.80
16491;DHT22;8356;51.214;3.270;2024-01-25T07:36:15;230.50;2252.80
16491;DHT22;8356;51.214;3.270;2024-01-25T07:38:41;230.50;2252.80
16491;DHT22;8356;51.214;3.270;2024-01-25T07:41:06;230.40;2252.80
16491;DHT22;8356;51.214;3.270;2024-01-25T07:43:32;230.40;2252.80
16491;DHT22;8356;51.214;3.270;2024-01-25T07:45:58;230.40;2252.80
16491;DHT22;8356;51.214;3.270;2024-01-25T07:48:24;230.40;2252.80
16491;DHT22;8356;51.214;3.270;2024-01-25T07:50:49;230.40;2252.80
16491;DHT22;8356;51.214;3.270;2024-01-25T07:53:15;230.50;2252.80
16491;DHT22;8356;51.214;3.270;2024-01-25T07:55:41;230.50;2252.80
16491;DHT22;8356;51.214;3.270;2024-01-25T07:58:07;230.60;2252.80
16491;DHT22;8356;51.214;3.270;2024-01-25T08:00:33;230.50;2252.80
16491;DHT22;8356;51.214;3.270;2024-01-25T08:02:58;230.60;2252.80
16491;DHT22;8356;51.214;3.270;2024-01-25T08:05:24;230.60;2252.80
16491;DHT22;8356;51.214;3.270;2024-01-25T08:07:50;230.60;2252.80
16491;DHT22;8356;51.214;3.270;2024-01-25T08:10:16;230.70;2252.80
16491;DHT22;8356;51.214;3.270;2024-01-25T08:12:41;230.70;2252.80
16491;DHT22;8356;51.214;3.270;2024-01-25T08:15:10;230.80;2252.80
16491;DHT22;8356;51.214;3.270;2024-01-25T08:17:37;230.70;2252.80
16491;DHT22;8356;51.214;3.270;2024-01-25T08:20:03;230.70;2252.80
16491;DHT22;8356;51.214;3.270;2024-01-25T08:22:31;230.80;2252.80
16491;DHT22;8356;51.214;3.270;2024-01-25T08:24:57;230.90;2252.80
16491;DHT22;8356;51.214;3.270;2024-01-25T08:27:24;230.80;2252.80
16491;DHT22;8356;51.214;3.270;2024-01-25T08:29:49;230.90;2252.80
16491;DHT22;8356;51.214;3.270;2024-01-25T08:32:15;230.70;2252.80
16491;DHT22;8356;51.214;3.270;2024-01-25T08:34:41;230.70;2252.80
16491;DHT22;8356;51.214;3.270;2024-01-25T08:37:07;230.70;2252.80
16491;DHT22;8356;51.214;3.270;2024-01-25T08:39:33;230.70;2252.80
16491;DHT22;8356;51.214;3.270;2024-01-25T08:41:58;230.70;2252.80
16491;DHT22;8356;51.214;3.270;2024-01-25T08:44:27;230.80;2252.80
16491;DHT22;8356;51.214;3.270;2024-01-25T08:46:53;230.90;2252.80
16491;DHT22;8356;51.214;3.270;2024-01-25T08:49:18;230.90;2252.80
16491;DHT22;8356;51.214;3.270;2024-01-25T08:51:44;230.90;2252.80
16491;DHT22;8356;51.214;3.270;2024-01-25T08:54:09;230.90;2252.80
16491;DHT22;8356;51.214;3.270;2024-01-25T08:56:35;230.90;2252.80
16491;DHT22;8356;51.214;3.270;2024-01-25T08:59:01;231.00;2252.80
16491;DHT22;8356;51.214;3.270;2024-01-25T09:01:26;231.00;2252.80
16491;DHT22;8356;51.214;3.270;2024-01-25T09:03:52;231.10;2252.80
16491;DHT22;8356;51.214;3.270;2024-01-25T09:06:18;231.10;2252.80
16491;DHT22;8356;51.214;3.270;2024-01-25T09:08:44;231.10;2252.80
16491;DHT22;8356;51.214;3.270;2024-01-25T09:11:09;231.20;2252.80
16491;DHT22;8356;51.214;3.270;2024-01-25T09:13:35;231.20;2252.80
16491;DHT22;8356;51.214;3.270;2024-01-25T09:16:01;231.30;2252.80
16491;DHT22;8356;51.214;3.270;2024-01-25T09:18:26;231.30;2252.80
16491;DHT22;8356;51.214;3.270;2024-01-25T09:20:52;231.30;2252.80
16491;DHT22;8356;51.214;3.270;2024-01-25T09:23:18;231.30;2252.80
16491;DHT22;8356;51.214;3.270;2024-01-25T09:25:45;256.10;2252.80
16491;DHT22;8356;51.214;3.270;2024-01-25T09:28:11;256.10;2252.80
16491;DHT22;8356;51.214;3.270;2024-01-25T09:30:40;256.00;2252.80
16491;DHT22;8356;51.214;3.270;2024-01-25T09:33:08;256.00;2252.80
16491;DHT22;8356;51.214;3.270;2024-01-25T09:35:34;256.10;2252.80
16491;DHT22;8356;51.214;3.270;2024-01-25T09:38:00;256.10;2252.80
16491;DHT22;8356;51.214;3.270;2024-01-25T09:40:25;256.40;2252.80
16491;DHT22;8356;51.214;3.270;2024-01-25T09:42:52;256.40;2252.80
16491;DHT22;8356;51.214;3.270;2024-01-25T09:45:18;256.40;2252.80
16491;DHT22;8356;51.214;3.270;2024-01-25T09:47:45;256.50;2252.80
16491;DHT22;8356;51.214;3.270;2024-01-25T09:50:11;256.50;2252.80
16491;DHT22;8356;51.214;3.270;2024-01-25T09:52:38;256.60;2252.80
16491;DHT22;8356;51.214;3.270;2024-01-25T09:55:06;256.60;2252.80
16491;DHT22;8356;51.214;3.270;2024-01-25T09:57:35;256.70;2252.80
16491;DHT22;8356;51.214;3.270;2024-01-25T10:00:04;256.70;2252.80
16491;DHT22;8356;51.214;3.270;2024-01-25T10:02:31;256.80;2252.80
16491;DHT22;8356;51.214;3.270;2024-01-25T10:04:57;256.70;2252.80
16491;DHT22;8356;51.214;3.270;2024-01-25T10:07:39;256.80;2252.80
16491;DHT22;8356;51.214;3.270;2024-01-25T10:10:05;256.90;2252.80
16491;DHT22;8356;51.214;3.270;2024-01-25T10:12:31;256.90;2252.80
16491;DHT22;8356;51.214;3.270;2024-01-25T10:14:57;256.80;2252.80
16491;DHT22;8356;51.214;3.270;2024-01-25T10:17:23;256.80;2252.80
16491;DHT22;8356;51.214;3.270;2024-01-25T10:19:48;256.80;2252.80
16491;DHT22;8356;51.214;3.270;2024-01-25T10:22:14;281.60;2278.40
16491;DHT22;8356;51.214;3.270;2024-01-25T10:24:40;281.70;2278.40
16491;DHT22;8356;51.214;3.270;2024-01-25T10:27:07;281.80;2278.40
16491;DHT22;8356;51.214;3.270;2024-01-25T10:29:34;256.70;2252.80
16491;DHT22;8356;51.214;3.270;2024-01-25T10:32:03;281.80;2278.40
16491;DHT22;8356;51.214;3.270;2024-01-25T10:34:30;281.70;2278.40
16491;DHT22;8356;51.214;3.270;2024-01-25T10:36:57;281.70;2278.40
16491;DHT22;8356;51.214;3.270;2024-01-25T10:39:24;281.80;2278.40
16491;DHT22;8356;51.214;3.270;2024-01-25T10:41:50;281.80;2278.40
16491;DHT22;8356;51.214;3.270;2024-01-25T10:44:19;282.00;2278.40
16491;DHT22;8356;51.214;3.270;2024-01-25T10:46:48;281.80;2278.40
16491;DHT22;8356;51.214;3.270;2024-01-25T10:49:14;281.90;2278.40
16491;DHT22;8356;51.214;3.270;2024-01-25T10:51:41;282.00;2278.40
16491;DHT22;8356;51.214;3.270;2024-01-25T10:54:11;281.90;2278.40
16491;DHT22;8356;51.214;3.270;2024-01-25T10:56:38;281.90;2278.40
16491;DHT22;8356;51.214;3.270;2024-01-25T10:59:06;281.90;2278.40
16491;DHT22;8356;51.214;3.270;2024-01-25T11:01:33;282.00;2278.40
16491;DHT22;8356;51.214;3.270;2024-01-25T11:03:59;282.00;2278.40
16491;DHT22;8356;51.214;3.270;2024-01-25T11:06:27;282.00;2278.40
16491;DHT22;8356;51.214;3.270;2024-01-25T11:09:06;282.00;2278.40
16491;DHT22;8356;51.214;3.270;2024-01-25T11:11:32;282.10;2278.40
16491;DHT22;8356;51.214;3.270;2024-01-25T11:14:01;282.20;2278.40
16491;DHT22;8356;51.214;3.270;2024-01-25T11:16:29;282.10;2278.40
16491;DHT22;8356;51.214;3.270;2024-01-25T11:18:57;282.20;2278.40
16491;DHT22;8356;51.214;3.270;2024-01-25T11:21:40;282.20;2278.40
16491;DHT22;8356;51.214;3.270;2024-01-25T11:24:21;282.30;2278.40
16491;DHT22;8356;51.214;3.270;2024-01-25T11:26:47;282.30;2278.40
16491;DHT22;8356;51.214;3.270;2024-01-25T11:29:16;282.30;2278.40
16491;DHT22;8356;51.214;3.270;2024-01-25T11:31:43;282.40;2278.40
16491;DHT22;8356;51.214;3.270;2024-01-25T11:34:11;282.40;2278.40
16491;DHT22;8356;51.214;3.270;2024-01-25T11:36:37;282.40;2278.40
16491;DHT22;8356;51.214;3.270;2024-01-25T11:39:04;282.40;2278.40
16491;DHT22;8356;51.214;3.270;2024-01-25T11:41:31;282.40;2278.40
16491;DHT22;8356;51.214;3.270;2024-01-25T11:43:57;282.40;2278.40
16491;DHT22;8356;51.214;3.270;2024-01-25T11:46:23;282.40;2278.40
16491;DHT22;8356;51.214;3.270;2024-01-25T11:48:50;282.40;2278.40
16491;DHT22;8356;51.214;3.270;2024-01-25T11:51:15;282.40;2278.40
16491;DHT22;8356;51.214;3.270;2024-01-25T11:53:41;282.50;2278.40
16491;DHT22;8356;51.214;3.270;2024-01-25T11:56:11;282.50;2278.40
16491;DHT22;8356;51.214;3.270;2024-01-25T11:58:38;282.50;2278.40
16491;DHT22;8356;51.214;3.270;2024-01-25T12:01:05;307.20;2304.00
16491;DHT22;8356;51.214;3.270;2024-01-25T12:03:36;307.20;2304.00
16491;DHT22;8356;51.214;3.270;2024-01-25T12:06:03;307.30;2304.00
16491;DHT22;8356;51.214;3.270;2024-01-25T12:08:33;307.30;2304.00
16491;DHT22;8356;51.214;3.270;2024-01-25T12:11:06;307.40;2304.00
16491;DHT22;8356;51.214;3.270;2024-01-25T12:13:34;307.40;2304.00
16491;DHT22;8356;51.214;3.270;2024-01-25T12:15:59;307.40;2304.00
16491;DHT22;8356;51.214;3.270;2024-01-25T12:18:26;307.40;2304.00
16491;DHT22;8356;51.214;3.270;2024-01-25T12:20:52;307.40;2304.00
16491;DHT22;8356;51.214;3.270;2024-01-25T12:23:17;307.40;2304.00
16491;DHT22;8356;51.214;3.270;2024-01-25T12:25:43;307.40;2304.00
16491;DHT22;8356;51.214;3.270;2024-01-25T12:28:10;307.40;2304.00
16491;DHT22;8356;51.214;3.270;2024-01-25T12:30:35;307.50;2304.00
16491;DHT22;8356;51.214;3.270;2024-01-25T12:33:01;307.50;2304.00
16491;DHT22;8356;51.214;3.270;2024-01-25T12:35:27;307.60;2304.00
16491;DHT22;8356;51.214;3.270;2024-01-25T12:37:52;256.80;2252.80
16491;DHT22;8356;51.214;3.270;2024-01-25T12:40:18;307.60;2304.00
16491;DHT22;8356;51.214;3.270;2024-01-25T12:42:44;307.70;2304.00
16491;DHT22;8356;51.214;3.270;2024-01-25T12:45:10;307.80;2304.00
16491;DHT22;8356;51.214;3.270;2024-01-25T12:47:35;307.80;2304.00
16491;DHT22;8356;51.214;3.270;2024-01-25T12:50:01;307.90;2304.00
16491;DHT22;8356;51.214;3.270;2024-01-25T12:52:27;307.90;2304.00
16491;DHT22;8356;51.214;3.270;2024-01-25T12:54:52;307.90;2304.00
16491;DHT22;8356;51.214;3.270;2024-01-25T12:57:18;307.80;2304.00
16491;DHT22;8356;51.214;3.270;2024-01-25T12:59:44;307.80;2304.00
16491;DHT22;8356;51.214;3.270;2024-01-25T13:02:12;307.90;2304.00
16491;DHT22;8356;51.214;3.270;2024-01-25T13:04:38;308.00;2304.00
16491;DHT22;8356;51.214;3.270;2024-01-25T13:07:03;308.10;2304.00
16491;DHT22;8356;51.214;3.270;2024-01-25T13:09:29;308.00;2304.00
16491;DHT22;8356;51.214;3.270;2024-01-25T13:11:59;307.90;2304.00
16491;DHT22;8356;51.214;3.270;2024-01-25T13:14:24;307.90;2304.00
16491;DHT22;8356;51.214;3.270;2024-01-25T13:16:50;307.90;2304.00
16491;DHT22;8356;51.214;3.270;2024-01-25T13:19:16;308.00;2304.00
16491;DHT22;8356;51.214;3.270;2024-01-25T13:21:41;308.00;2304.00
16491;DHT22;8356;51.214;3.270;2024-01-25T13:24:07;308.00;2304.00
16491;DHT22;8356;51.214;3.270;2024-01-25T13:26:35;308.00;2304.00
16491;DHT22;8356;51.214;3.270;2024-01-25T13:29:01;308.10;2304.00
16491;DHT22;8356;51.214;3.270;2024-01-25T13:31:26;308.10;2304.00
16491;DHT22;8356;51.214;3.270;2024-01-25T13:33:52;332.80;2329.60
16491;DHT22;8356;51.214;3.270;2024-01-25T13:36:18;332.80;2329.60
16491;DHT22;8356;51.214;3.270;2024-01-25T13:38:43;332.80;2329.60
16491;DHT22;8356;51.214;3.270;2024-01-25T13:41:09;332.80;2329.60
16491;DHT22;8356;51.214;3.270;2024-01-25T13:43:34;332.80;2329.60
16491;DHT22;8356;51.214;3.270;2024-01-25T13:46:00;332.80;2329.60
16491;DHT22;8356;51.214;3.270;2024-01-25T13:48:26;332.90;2329.60
16491;DHT22;8356;51.214;3.270;2024-01-25T13:50:51;332.90;2329.60
16491;DHT22;8356;51.214;3.270;2024-01-25T13:53:17;332.80;2329.60
16491;DHT22;8356;51.214;3.270;2024-01-25T13:55:43;332.80;2329.60
16491;DHT22;8356;51.214;3.270;2024-01-25T13:58:09;332.80;2329.60
16491;DHT22;8356;51.214;3.270;2024-01-25T14:00:35;307.40;2304.00
16491;DHT22;8356;51.214;3.270;2024-01-25T14:03:01;332.90;2329.60
16491;DHT22;8356;51.214;3.270;2024-01-25T14:05:26;332.90;2329.60
16491;DHT22;8356;51.214;3.270;2024-01-25T14:07:52;332.90;2329.60
16491;DHT22;8356;51.214;3.270;2024-01-25T14:10:19;332.90;2329.60
16491;DHT22;8356;51.214;3.270;2024-01-25T14:12:45;333.00;2329.60
16491;DHT22;8356;51.214;3.270;2024-01-25T14:15:11;333.10;2329.60
16491;DHT22;8356;51.214;3.270;2024-01-25T14:17:37;333.10;2329.60
16491;DHT22;8356;51.214;3.270;2024-01-25T14:20:03;333.10;2329.60
16491;DHT22;8356;51.214;3.270;2024-01-25T14:22:30;333.10;2329.60
16491;DHT22;8356;51.214;3.270;2024-01-25T14:24:56;333.20;2329.60
16491;DHT22;8356;51.214;3.270;2024-01-25T14:27:22;333.20;2329.60
16491;DHT22;8356;51.214;3.270;2024-01-25T14:29:47;333.20;2329.60
16491;DHT22;8356;51.214;3.270;2024-01-25T14:32:13;333.20;2329.60
16491;DHT22;8356;51.214;3.270;2024-01-25T14:34:39;333.20;2329.60
16491;DHT22;8356;51.214;3.270;2024-01-25T14:37:05;333.20;2329.60
16491;DHT22;8356;51.214;3.270;2024-01-25T14:39:31;333.20;2329.60
16491;DHT22;8356;51.214;3.270;2024-01-25T14:41:57;333.20;2329.60
16491;DHT22;8356;51.214;3.270;2024-01-25T14:44:22;333.20;2329.60
16491;DHT22;8356;51.214;3.270;2024-01-25T14:46:48;333.20;2329.60
16491;DHT22;8356;51.214;3.270;2024-01-25T14:49:13;333.20;2329.60
16491;DHT22;8356;51.214;3.270;2024-01-25T14:51:39;333.20;2329.60
16491;DHT22;8356;51.214;3.270;2024-01-25T14:54:05;333.20;2329.60
16491;DHT22;8356;51.214;3.270;2024-01-25T14:56:30;333.20;2329.60